Myrtle Beach International Airport Myrtle Beach US
ICAO: KMYR
IATA: MYR
Category: Large
Scheduled Services: Yes

Elevation: 25 ft
TransAlt. 18000 ft.

Airport Communications:
APP/DEP:119.2
ATIS:123.925
AWOS 3:124.5
CLNC DEL:119.7
CTAF:128.45
GND:120.3
TWR:128.45
UNICOM:122.95

KMYR Zoom In..

Runways:

(A) RW 18 length 9503 ft width 150 ft
ILS 109.50 / hdg 174

(B) RW 36 length 9503 ft width 150 ft
ILS 111.90 / hdg 354

Location; KMYR
Day. 15 / Time. 21.56 Zulu
* Altimeter: 30.03
* Temperature: 29° c. 84.2°f.
* Wind from: 130° Speed 09 kn.
Dewpoint: 20° c.
Visibility: 10 Statute Miles.
Clouds: Clear (automated report).

KMYR 152156Z 13009KT 10SM CLR 29/20 A3003 RMK AO2 SLP170 T02940200


Wind From 130°
Speed 09 kn.

 
 
jpsmedia.com for Web Design worldairports.se 2018   terms of use